Time;durP1;ratioP1;P1;durP2;ratioP2;P2;SDS_P1;SDS_P2;PMS_P1;PMS_P2;Temp;Humidity;BMP_temperature;BMP_pressure;BME280_temperature;BME280_humidity;BME280_pressure;Samples;Min_cycle;Max_cycle;Signal;HPM_P1;HPM_P2
2022/02/09 00:07:11;;;;;;;10.02;4.88;;;230.80;1510.40;;;;;;5033213;28;20105;-61
2022/02/09 00:09:45;;;;;;;10.35;4.90;;;230.80;1510.40;;;;;;5033309;28;20071;-61
2022/02/09 00:12:24;;;;;;;11.57;5.20;;;230.80;1510.40;;;;;;5033112;28;20036;-62
2022/02/09 00:18:35;;;;;;;14.60;6.15;;;230.80;1536.00;;;;;;4993921;28;20073;-60
2022/02/09 01:39:38;;;;;;;14.02;8.32;;;230.60;1638.40;;;;;;5114382;28;20423;-61
2022/02/09 01:56:17;;;;;;;17.23;9.20;;;231.10;1920.00;;;;;;5114126;28;20026;-60
2022/02/09 01:58:49;;;;;;;23.17;10.48;;;231.10;1715.20;;;;;;5114030;28;20107;-61
2022/02/09 02:01:20;;;;;;;26.30;13.90;;;231.00;1664.00;;;;;;5114098;28;20099;-63
2022/02/09 02:03:52;;;;;;;40.38;19.88;;;231.00;1638.40;;;;;;5113945;28;20020;-63
2022/02/09 02:06:22;;;;;;;48.88;23.13;;;230.90;1638.40;;;;;;5114021;28;20118;-61
2022/02/09 02:08:54;;;;;;;109.43;49.58;;;230.90;1612.80;;;;;;5113425;28;20024;-62
2022/02/09 02:11:38;;;;;;;76.45;34.70;;;230.90;1612.80;;;;;;5114190;28;20485;-61
2022/02/09 02:19:55;;;;;;;52.10;23.92;;;230.90;1561.60;;;;;;5113928;28;20150;-62
2022/02/09 02:23:02;;;;;;;70.55;33.70;;;230.90;1587.20;;;;;;5095546;28;20030;-60
2022/02/09 02:25:59;;;;;;;30.20;15.98;;;230.80;1587.20;;;;;;5113433;28;20141;-61
2022/02/09 03:12:38;;;;;;;12.82;7.50;;;230.70;1561.60;;;;;;5116977;28;20065;-62
2022/02/09 03:15:50;;;;;;;12.15;7.75;;;230.70;1561.60;;;;;;5116953;28;20077;-61
2022/02/09 03:24:02;;;;;;;13.75;9.60;;;230.60;1587.20;;;;;;5116979;28;20081;-61
2022/02/09 03:26:58;;;;;;;10.73;6.50;;;230.60;1587.20;;;;;;5116732;28;20039;-61
2022/02/09 03:57:22;;;;;;;10.18;5.47;;;230.40;1587.20;;;;;;5116045;28;20026;-61
2022/02/09 03:59:56;;;;;;;10.82;4.60;;;230.40;1612.80;;;;;;5115951;28;20027;-63
2022/02/09 04:02:29;;;;;;;9.27;4.75;;;230.40;1587.20;;;;;;5115735;28;20080;-64
2022/02/09 04:05:01;;;;;;;7.88;4.57;;;230.40;1612.80;;;;;;5116070;28;20189;-64
2022/02/09 04:07:33;;;;;;;7.40;4.63;;;230.40;1612.80;;;;;;5116148;28;20048;-63
2022/02/09 04:10:07;;;;;;;7.68;4.00;;;230.40;1587.20;;;;;;5115744;28;20088;-64
2022/02/09 04:12:47;;;;;;;7.15;4.22;;;230.40;1612.80;;;;;;5115627;28;20072;-62
2022/02/09 04:15:31;;;;;;;7.15;4.25;;;230.40;1587.20;;;;;;5115778;28;20063;-63
2022/02/09 04:18:16;;;;;;;16.00;5.43;;;230.40;1587.20;;;;;;5115930;28;20055;-61
2022/02/09 04:40:30;;;;;;;7.50;3.95;;;230.40;1638.40;;;;;;5115669;28;20489;-63
2022/02/09 04:43:34;;;;;;;6.68;3.83;;;230.50;1612.80;;;;;;5115041;28;20072;-62
2022/02/09 04:57:15;;;;;;;7.97;3.58;;;230.50;1612.80;;;;;;5114847;28;20542;-61
2022/02/09 05:25:16;;;;;;;9.57;4.65;;;230.60;1638.40;;;;;;5114552;28;20022;-62
2022/02/09 05:27:50;;;;;;;8.32;5.03;;;230.50;1638.40;;;;;;5113738;28;20050;-63
2022/02/09 05:30:19;;;;;;;10.70;6.25;;;230.50;1638.40;;;;;;5114637;28;20028;-62
2022/02/09 05:32:51;;;;;;;15.30;8.30;;;230.50;1638.40;;;;;;5114093;28;20048;-63
2022/02/09 05:35:22;;;;;;;19.23;9.55;;;230.50;1638.40;;;;;;5114325;28;20030;-63
2022/02/09 05:37:58;;;;;;;19.60;10.02;;;230.50;1638.40;;;;;;5114353;28;20031;-63
2022/02/09 05:40:29;;;;;;;17.02;9.70;;;230.40;1612.80;;;;;;5114207;28;20024;-60
2022/02/09 05:43:00;;;;;;;16.77;9.60;;;230.40;1638.40;;;;;;5114272;28;20381;-64
2022/02/09 05:45:53;;;;;;;13.43;8.13;;;230.40;1638.40;;;;;;5095844;28;20027;-61
2022/02/09 05:51:30;;;;;;;13.73;7.65;;;230.40;1664.00;;;;;;5114422;28;20039;-62
2022/02/09 05:57:12;;;;;;;11.45;5.80;;;230.40;1638.40;;;;;;5113747;28;20024;-61
2022/02/09 05:59:46;;;;;;;12.48;6.20;;;230.40;1638.40;;;;;;5113854;28;20072;-60
2022/02/09 06:02:19;;;;;;;13.88;6.82;;;205.60;1638.40;;;;;;5114024;28;20031;-60
2022/02/09 06:04:51;;;;;;;11.95;7.53;;;205.60;1664.00;;;;;;5114118;28;20023;-60
2022/02/09 06:07:23;;;;;;;13.07;5.95;;;205.50;1638.40;;;;;;5113653;28;20039;-61
2022/02/09 06:09:54;;;;;;;14.48;6.78;;;205.50;1638.40;;;;;;5113801;28;20044;-61
2022/02/09 06:12:33;;;;;;;13.55;6.97;;;205.50;1664.00;;;;;;5113756;28;20031;-62
2022/02/09 06:20:40;;;;;;;20.35;10.05;;;205.40;1638.40;;;;;;5113745;28;20103;-60
2022/02/09 06:23:09;;;;;;;23.73;11.07;;;205.50;1638.40;;;;;;5113694;28;20032;-60
2022/02/09 06:25:40;;;;;;;25.80;12.00;;;205.40;1638.40;;;;;;5116893;28;20043;-60
2022/02/09 06:28:12;;;;;;;28.38;12.43;;;205.40;1638.40;;;;;;5117514;28;20027;-62
2022/02/09 06:30:43;;;;;;;24.02;12.35;;;205.40;1638.40;;;;;;5117610;28;20077;-62
2022/02/09 06:33:15;;;;;;;28.10;11.05;;;205.30;1612.80;;;;;;5117476;28;20105;-62
2022/02/09 06:35:48;;;;;;;19.23;9.73;;;205.40;1638.40;;;;;;5117868;28;20118;-62
2022/02/09 06:38:20;;;;;;;38.15;30.10;;;205.40;1638.40;;;;;;5117500;28;20030;-61
2022/02/09 06:40:54;;;;;;;28.98;23.08;;;205.30;1612.80;;;;;;5117525;28;20481;-64
2022/02/09 06:43:26;;;;;;;30.98;21.00;;;205.30;1638.40;;;;;;5117516;28;20408;-64
2022/02/09 06:45:57;;;;;;;24.23;12.70;;;205.30;1638.40;;;;;;5117446;28;20071;-62
2022/02/09 06:48:31;;;;;;;14.30;9.80;;;205.30;1638.40;;;;;;5117234;28;20024;-63
2022/02/09 06:51:12;;;;;;;11.75;7.35;;;205.30;1638.40;;;;;;5117248;28;20420;-62
2022/02/09 06:54:03;;;;;;;13.48;7.60;;;205.40;1612.80;;;;;;5117095;28;20034;-63
2022/02/09 06:59:30;;;;;;;;;;;205.40;1612.80;;;;;;5046885;28;20049;-62
2022/02/09 07:01:57;;;;;;;14.45;5.78;;;205.50;1612.80;;;;;;5044231;28;20232;-62
2022/02/09 07:04:23;;;;;;;9.00;5.15;;;205.40;1612.80;;;;;;5042417;28;20549;-61
2022/02/09 07:06:49;;;;;;;56.38;22.92;;;205.50;1612.80;;;;;;5027199;28;20060;-61
2022/02/09 07:09:15;;;;;;;74.93;34.58;;;205.40;1612.80;;;;;;5043849;28;20475;-62
2022/02/09 07:11:40;;;;;;;34.15;16.42;;;205.30;1612.80;;;;;;5042340;28;20025;-62
2022/02/09 07:14:08;;;;;;;33.60;17.50;;;205.30;1638.40;;;;;;5043730;28;20029;-61
2022/02/09 07:16:34;;;;;;;16.73;8.98;;;205.30;1638.40;;;;;;5043462;28;20045;-62
2022/02/09 07:19:06;;;;;;;14.23;7.47;;;205.30;1638.40;;;;;;5042335;28;20541;-62
2022/02/09 07:21:32;;;;;;;18.42;8.95;;;205.30;1638.40;;;;;;5038445;28;20109;-61
2022/02/09 07:24:00;;;;;;;15.50;8.52;;;205.50;1612.80;;;;;;5034223;28;20423;-62
2022/02/09 07:28:52;;;;;;;15.65;8.23;;;205.60;1638.40;;;;;;5043740;28;20025;-64
2022/02/09 07:31:19;;;;;;;14.38;7.43;;;205.70;1612.80;;;;;;5043419;28;20036;-62
2022/02/09 07:33:45;;;;;;;12.93;7.10;;;205.60;1638.40;;;;;;5042110;28;20364;-61
2022/02/09 07:36:13;;;;;;;16.33;6.90;;;205.60;1638.40;;;;;;5095538;28;20059;-61
2022/02/09 07:38:41;;;;;;;12.55;7.30;;;205.60;1638.40;;;;;;5116095;28;20054;-66
2022/02/09 07:41:08;;;;;;;11.30;6.50;;;205.70;1664.00;;;;;;5101301;28;20453;-62
2022/02/09 07:43:47;;;;;;;12.43;6.15;;;205.70;1638.40;;;;;;5095622;28;20112;-61
2022/02/09 07:54:00;;;;;;;17.40;6.78;;;230.40;1689.60;;;;;;5101105;28;20024;-61
2022/02/09 07:56:41;;;;;;;16.73;6.53;;;230.40;1689.60;;;;;;5095531;28;20394;-62
2022/02/09 07:59:10;;;;;;;20.00;8.43;;;230.50;1689.60;;;;;;5104568;28;20037;-61
2022/02/09 08:01:38;;;;;;;21.42;8.02;;;230.60;1689.60;;;;;;5102483;28;20081;-61
2022/02/09 08:04:05;;;;;;;34.38;10.05;;;230.60;1689.60;;;;;;5104835;28;20038;-61
2022/02/09 08:06:39;;;;;;;24.77;9.13;;;230.60;1689.60;;;;;;5102439;28;20040;-59
2022/02/09 08:09:24;;;;;;;17.05;7.65;;;230.70;1715.20;;;;;;5095586;28;20016;-59
2022/02/09 08:11:59;;;;;;;15.75;7.13;;;230.70;1715.20;;;;;;5095065;28;20367;-59
2022/02/09 08:28:48;;;;;;;25.05;9.38;;;231.00;1792.00;;;;;;5095212;28;20042;-59
2022/02/09 08:33:51;;;;;;;15.00;7.18;;;231.10;1792.00;;;;;;5095229;28;20016;-59
2022/02/09 08:36:23;;;;;;;16.10;7.72;;;231.20;1766.40;;;;;;5095646;28;20032;-59
2022/02/09 08:38:52;;;;;;;14.15;6.97;;;231.30;1766.40;;;;;;5094864;28;20024;-60
2022/02/09 08:41:23;;;;;;;14.55;6.85;;;231.30;1766.40;;;;;;5094944;28;20032;-59
2022/02/09 08:43:54;;;;;;;12.15;7.05;;;256.00;1766.40;;;;;;5076388;28;20036;-59
2022/02/09 08:46:26;;;;;;;13.68;8.00;;;256.10;1766.40;;;;;;5094644;28;20094;-59
2022/02/09 08:48:58;;;;;;;14.75;8.82;;;256.30;1766.40;;;;;;5094554;28;20024;-59
2022/02/09 08:51:28;;;;;;;14.10;8.40;;;256.30;1766.40;;;;;;5094265;28;20024;-59
2022/02/09 08:53:59;;;;;;;15.00;8.20;;;256.30;1766.40;;;;;;5094855;28;20454;-59
2022/02/09 08:56:32;;;;;;;11.93;7.35;;;256.30;1766.40;;;;;;5094529;28;20020;-59
2022/02/09 08:59:04;;;;;;;9.55;6.22;;;256.40;1766.40;;;;;;5094400;28;20036;-59
2022/02/09 09:01:42;;;;;;;14.13;6.85;;;256.50;1766.40;;;;;;5094594;28;20355;-59
2022/02/09 09:04:21;;;;;;;15.65;8.60;;;256.50;1766.40;;;;;;5094425;28;20020;-60
2022/02/09 09:06:57;;;;;;;15.77;7.90;;;256.50;1766.40;;;;;;5094185;28;20032;-59
2022/02/09 09:09:55;;;;;;;16.30;8.52;;;256.60;1766.40;;;;;;5094438;28;20032;-59
2022/02/09 10:33:14;;;;;;;8.32;4.28;;;333.20;1689.60;;;;;;4995463;28;20148;-59
2022/02/09 10:36:12;;;;;;;6.97;4.55;;;333.30;1689.60;;;;;;4995874;28;20120;-59
2022/02/09 10:38:37;;;;;;;7.70;4.75;;;333.30;1664.00;;;;;;4995054;28;20038;-59
2022/02/09 10:41:24;;;;;;;9.07;4.93;;;333.40;1664.00;;;;;;4995700;28;20066;-59
2022/02/09 10:44:09;;;;;;;10.45;5.65;;;333.40;1664.00;;;;;;4995572;28;20034;-60
2022/02/09 10:46:56;;;;;;;12.23;6.18;;;333.40;1638.40;;;;;;4995500;28;20447;-59
2022/02/09 10:49:31;;;;;;;11.27;6.10;;;333.40;1638.40;;;;;;4995444;28;20098;-59
2022/02/09 10:52:18;;;;;;;;;;;;;;;;;;;;;
2022/02/09 10:54:36;;;;;;;10.57;5.68;;;333.40;1612.80;;;;;;4995545;28;20030;-60
2022/02/09 10:57:08;;;;;;;9.05;5.45;;;333.50;1612.80;;;;;;4995295;28;20030;-59
2022/02/09 10:59:46;;;;;;;9.30;5.65;;;333.50;1612.80;;;;;;4995131;28;20582;-60
2022/02/09 11:02:19;;;;;;;9.30;5.13;;;333.50;1612.80;;;;;;4995282;28;20026;-60
2022/02/09 11:04:51;;;;;;;8.20;4.88;;;333.50;1612.80;;;;;;4995191;28;20041;-59
2022/02/09 11:07:22;;;;;;;10.23;5.05;;;333.60;1587.20;;;;;;5084923;28;20438;-59
2022/02/09 11:09:52;;;;;;;11.82;6.45;;;333.60;1587.20;;;;;;5095802;28;20515;-59
2022/02/09 11:12:22;;;;;;;15.88;9.93;;;333.70;1587.20;;;;;;5096517;28;20117;-59
2022/02/09 11:14:53;;;;;;;15.75;7.82;;;333.70;1587.20;;;;;;5096591;28;20020;-59
2022/02/09 11:17:26;;;;;;;9.60;5.60;;;333.70;1587.20;;;;;;5096822;28;20099;-59
2022/02/09 11:20:01;;;;;;;12.65;5.28;;;358.40;1561.60;;;;;;5096546;28;20024;-59
2022/02/09 11:22:38;;;;;;;;;;;358.40;1561.60;;;;;;5096572;28;20107;-59
2022/02/09 11:25:19;;;;;;;12.80;6.18;;;358.40;1561.60;;;;;;5096412;28;19908;-60
2022/02/09 11:27:53;;;;;;;12.23;6.20;;;358.40;1561.60;;;;;;5095958;28;20036;-60
2022/02/09 11:30:44;;;;;;;12.02;6.57;;;358.40;1561.60;;;;;;5096284;28;20024;-59
2022/02/09 11:33:26;;;;;;;34.25;19.40;;;358.40;1561.60;;;;;;5095913;28;20485;-60
2022/02/09 11:39:18;;;;;;;30.00;18.30;;;358.50;1561.60;;;;;;5095908;28;20500;-59
2022/02/09 11:42:24;;;;;;;18.27;11.35;;;358.60;1561.60;;;;;;5095823;28;20020;-59
2022/02/09 11:45:13;;;;;;;16.45;10.10;;;358.60;1561.60;;;;;;5096008;28;20074;-59
2022/02/09 11:51:01;;;;;;;11.45;6.60;;;358.60;1561.60;;;;;;5095824;28;20017;-60
2022/02/09 12:11:41;;;;;;;9.93;5.82;;;358.80;1536.00;;;;;;5095757;28;20468;-59
2022/02/09 12:17:14;;;;;;;13.85;8.25;;;358.80;1536.00;;;;;;5095412;28;20027;-61
2022/02/09 12:19:54;;;;;;;84.75;11.02;;;358.80;1561.60;;;;;;5104268;28;20032;-63
2022/02/09 12:22:26;;;;;;;49.70;9.70;;;358.80;1561.60;;;;;;5104841;28;20058;-64
2022/02/09 12:25:01;;;;;;;32.08;9.88;;;358.80;1561.60;;;;;;5100671;28;20028;-67
2022/02/09 12:27:29;;;;;;;;;;;358.90;1536.00;;;;;;5102979;28;20042;-66
2022/02/09 12:30:12;;;;;;;13.32;7.65;;;358.90;1536.00;;;;;;5104359;28;19910;-64
2022/02/09 12:32:43;;;;;;;11.75;6.00;;;358.90;1536.00;;;;;;5102150;28;20044;-70
2022/02/09 12:35:16;;;;;;;254.30;22.33;;;358.90;1510.40;;;;;;5103044;28;20023;-63
2022/02/09 12:37:48;;;;;;;91.13;12.65;;;358.90;1536.00;;;;;;5104706;28;20053;-64
2022/02/09 12:40:23;;;;;;;193.45;16.25;;;358.90;1510.40;;;;;;5114844;28;20107;-62
2022/02/09 12:42:54;;;;;;;126.32;12.85;;;358.90;1510.40;;;;;;5108677;28;20020;-61
2022/02/09 12:45:27;;;;;;;46.03;9.57;;;358.90;1510.40;;;;;;5102874;28;20127;-61
2022/02/09 12:48:06;;;;;;;26.52;10.43;;;358.90;1510.40;;;;;;5100511;28;20101;-61
2022/02/09 12:50:40;;;;;;;12.50;6.43;;;358.90;1510.40;;;;;;5102270;28;20035;-63
2022/02/09 12:53:10;;;;;;;22.43;6.33;;;358.90;1510.40;;;;;;5103251;28;20027;-66
2022/02/09 12:55:42;;;;;;;24.08;5.65;;;358.90;1510.40;;;;;;5100057;28;20430;-66
2022/02/09 12:58:13;;;;;;;18.33;4.85;;;358.90;1510.40;;;;;;5102906;28;20020;-70
2022/02/09 13:00:47;;;;;;;10.02;5.38;;;358.80;1510.40;;;;;;5100425;28;20016;-64
2022/02/09 13:03:22;;;;;;;37.15;21.00;;;358.80;1510.40;;;;;;5102344;28;20023;-64
2022/02/09 13:05:56;;;;;;;60.80;49.22;;;358.80;1510.40;;;;;;5084137;28;20027;-63
2022/02/09 13:08:29;;;;;;;42.28;34.92;;;358.90;1510.40;;;;;;5101599;28;20016;-68
2022/02/09 13:11:18;;;;;;;37.20;27.75;;;358.90;1510.40;;;;;;5082551;28;20028;-62
2022/02/09 13:13:56;;;;;;;23.02;15.02;;;358.90;1536.00;;;;;;5101704;28;20027;-64
2022/02/09 13:19:38;;;;;;;102.10;69.05;;;358.90;1536.00;;;;;;5101314;28;20551;-62
2022/02/09 14:13:45;;;;;;;13.40;8.32;;;359.20;1510.40;;;;;;5009836;28;20108;-66
2022/02/09 14:50:31;;;;;;;32.92;12.57;;;359.10;1536.00;;;;;;5028111;28;20040;-62
2022/02/09 14:55:28;;;;;;;24.52;12.05;;;359.10;1536.00;;;;;;5034670;28;20456;-65
2022/02/09 14:58:08;;;;;;;25.15;11.50;;;359.10;1536.00;;;;;;5034468;28;20037;-61
2022/02/09 15:09:18;;;;;;;30.27;11.63;;;359.10;1561.60;;;;;;5034183;28;20036;-66
2022/02/09 15:14:50;;;;;;;28.40;12.85;;;359.10;1561.60;;;;;;5034238;28;20071;-66
2022/02/09 15:17:42;;;;;;;31.27;15.98;;;359.10;1561.60;;;;;;5044657;28;20033;-62
2022/02/09 15:22:35;;;;;;;31.20;15.75;;;359.10;1561.60;;;;;;5116993;28;20020;-65
2022/02/09 15:25:15;;;;;;;34.63;13.48;;;359.10;1561.60;;;;;;5116770;28;20074;-61
2022/02/09 15:27:50;;;;;;;34.53;14.23;;;359.10;1561.60;;;;;;5116641;28;20032;-61
2022/02/09 15:30:22;;;;;;;42.58;17.35;;;359.00;1587.20;;;;;;5116651;28;20094;-61
2022/02/09 15:32:53;;;;;;;48.58;18.80;;;359.00;1587.20;;;;;;5116619;28;20127;-62
2022/02/09 15:35:30;;;;;;;49.25;22.42;;;358.90;1612.80;;;;;;5116716;28;20104;-61
2022/02/09 15:38:20;;;;;;;45.00;22.70;;;358.80;1612.80;;;;;;5116520;28;20055;-65
2022/02/09 15:41:56;;;;;;;33.35;17.80;;;358.80;1612.80;;;;;;5116469;28;20461;-63
2022/02/09 15:44:07;;;;;;;34.50;15.75;;;358.80;1612.80;;;;;;5101985;28;20031;-66
2022/02/09 16:06:15;;;;;;;36.30;11.30;;;358.40;1664.00;;;;;;5105832;28;20034;-61
2022/02/09 16:17:51;;;;;;;55.88;27.98;;;333.50;1664.00;;;;;;5102290;28;20027;-61
2022/02/09 16:22:27;;;;;;;45.72;23.20;;;333.40;1689.60;;;;;;5104350;28;20024;-61
2022/02/09 16:44:37;;;;;;;70.70;29.85;;;308.00;1740.80;;;;;;5115464;28;20035;-61
2022/02/09 16:50:06;;;;;;;78.70;36.25;;;307.90;1766.40;;;;;;5115101;28;20031;-61
2022/02/09 16:52:52;;;;;;;;;;;307.80;1792.00;;;;;;5115457;28;20084;-61
2022/02/09 17:19:47;;;;;;;178.18;55.88;;;307.30;1817.60;;;;;;5100491;28;20097;-61
2022/02/09 17:22:18;;;;;;;168.27;56.30;;;307.20;1792.00;;;;;;5108282;28;20028;-61
2022/02/09 17:24:49;;;;;;;123.63;55.17;;;282.40;1766.40;;;;;;5114892;28;20077;-61
2022/02/09 17:27:20;;;;;;;134.50;62.35;;;282.40;1792.00;;;;;;5114409;28;20491;-61
2022/02/09 17:35:36;;;;;;;104.43;52.88;;;282.30;1843.20;;;;;;5114416;28;20031;-61
2022/02/09 17:57:54;;;;;;;114.22;52.88;;;282.00;1868.80;;;;;;5114073;28;20016;-61
2022/02/09 18:00:23;;;;;;;101.55;49.10;;;282.10;1843.20;;;;;;5114073;28;20036;-61
2022/02/09 18:02:56;;;;;;;83.88;41.30;;;282.10;1843.20;;;;;;5113957;28;20478;-61
2022/02/09 18:08:20;;;;;;;55.08;33.67;;;282.20;1817.60;;;;;;5114123;28;20047;-61
2022/02/09 18:33:53;;;;;;;43.03;22.63;;;282.40;1766.40;;;;;;5015602;28;20554;-60
2022/02/09 18:44:35;;;;;;;51.08;25.73;;;282.10;1766.40;;;;;;5015139;28;20044;-60
2022/02/09 19:06:17;;;;;;;61.78;34.88;;;281.80;1740.80;;;;;;5014762;28;20068;-58
2022/02/09 19:14:32;;;;;;;51.47;29.23;;;281.70;1766.40;;;;;;5117164;28;20031;-60
2022/02/09 19:17:19;;;;;;;48.40;27.27;;;281.70;1766.40;;;;;;5116798;28;20028;-60
2022/02/09 19:30:59;;;;;;;49.80;27.80;;;281.60;1766.40;;;;;;5111958;28;20020;-58
2022/02/09 19:45:23;;;;;;;32.65;18.52;;;256.90;1740.80;;;;;;5062659;28;20036;-60
2022/02/09 19:47:58;;;;;;;26.02;16.80;;;256.90;1740.80;;;;;;5060632;28;20498;-59
2022/02/09 19:56:04;;;;;;;33.85;20.02;;;256.80;1740.80;;;;;;5059757;28;20028;-58
2022/02/09 20:01:16;;;;;;;39.45;24.40;;;256.90;1715.20;;;;;;5055935;28;20524;-58
2022/02/09 20:03:43;;;;;;;30.40;16.77;;;281.60;1740.80;;;;;;5061097;28;20028;-58
2022/02/09 20:06:11;;;;;;;26.40;16.02;;;256.90;1715.20;;;;;;5058532;28;20471;-58
2022/02/09 20:08:40;;;;;;;29.27;17.35;;;256.90;1715.20;;;;;;5053235;28;20033;-58
2022/02/09 20:11:08;;;;;;;33.88;19.70;;;281.60;1740.80;;;;;;5052699;28;20450;-58
2022/02/09 20:13:35;;;;;;;34.72;20.02;;;256.90;1715.20;;;;;;5057417;28;20340;-60
2022/02/09 20:16:02;;;;;;;32.38;19.63;;;256.90;1740.80;;;;;;5068639;28;20017;-59
2022/02/09 20:18:31;;;;;;;30.88;19.00;;;281.60;1766.40;;;;;;5060835;28;20508;-60
2022/02/09 20:21:03;;;;;;;27.35;16.27;;;281.60;1740.80;;;;;;5078865;28;20032;-59
2022/02/09 20:23:32;;;;;;;41.58;16.45;;;281.60;1740.80;;;;;;5103235;28;20351;-60
2022/02/09 20:26:04;;;;;;;29.20;17.17;;;281.60;1766.40;;;;;;5100535;28;20030;-60
2022/02/09 20:28:30;;;;;;;29.65;19.48;;;281.60;1740.80;;;;;;5102997;28;20028;-58
2022/02/09 20:31:02;;;;;;;32.65;19.63;;;256.80;1740.80;;;;;;5104656;28;20023;-61
2022/02/09 20:33:35;;;;;;;31.70;18.55;;;256.80;1740.80;;;;;;5104480;28;20028;-59
2022/02/09 20:36:05;;;;;;;28.20;15.98;;;256.80;1740.80;;;;;;5101438;28;20032;-59
2022/02/09 20:38:32;;;;;;;24.33;14.90;;;256.70;1740.80;;;;;;5102817;28;20370;-58
2022/02/09 20:41:05;;;;;;;20.55;14.00;;;256.70;1740.80;;;;;;5104208;28;20034;-58
2022/02/09 20:43:40;;;;;;;22.65;13.63;;;256.60;1740.80;;;;;;5103494;28;20031;-61
2022/02/09 20:46:08;;;;;;;31.08;16.20;;;256.60;1740.80;;;;;;5101586;28;20047;-60
2022/02/09 20:48:34;;;;;;;24.08;14.65;;;256.60;1740.80;;;;;;5093601;28;20028;-58
2022/02/09 20:51:02;;;;;;;27.58;14.68;;;256.60;1740.80;;;;;;5104422;28;20020;-59
2022/02/09 20:53:29;;;;;;;25.90;14.60;;;256.60;1740.80;;;;;;5097897;28;20065;-59
2022/02/09 20:55:56;;;;;;;24.92;15.25;;;256.50;1740.80;;;;;;5098026;28;20435;-58
2022/02/09 20:58:26;;;;;;;23.27;14.57;;;256.50;1740.80;;;;;;5103920;28;20080;-58
2022/02/09 21:01:03;;;;;;;27.35;15.80;;;256.50;1740.80;;;;;;5103283;28;20072;-59
2022/02/09 21:11:41;;;;;;;37.17;18.02;;;256.30;1740.80;;;;;;5102361;28;20073;-59
2022/02/09 21:17:13;;;;;;;32.88;21.42;;;256.20;1740.80;;;;;;5100371;28;20020;-58
2022/02/09 21:22:16;;;;;;;33.30;20.83;;;256.10;1766.40;;;;;;5102339;28;20044;-61
2022/02/09 21:56:52;;;;;;;38.35;22.40;;;231.20;1766.40;;;;;;5029956;28;20469;-60
2022/02/09 22:56:47;;;;;;;37.05;20.30;;;231.20;1740.80;;;;;;4921545;29;20119;-61
2022/02/09 22:59:29;;;;;;;26.85;18.90;;;231.10;1740.80;;;;;;4923545;29;20138;-57
2022/02/09 23:02:00;;;;;;;29.63;19.52;;;231.10;1740.80;;;;;;4952412;28;20023;-60
2022/02/09 23:04:43;;;;;;;29.77;17.80;;;231.10;1740.80;;;;;;4943828;29;20162;-58
2022/02/09 23:07:49;;;;;;;28.15;17.67;;;231.00;1740.80;;;;;;4962398;28;20074;-62
2022/02/09 23:13:31;;;;;;;32.20;20.38;;;231.00;1740.80;;;;;;4889166;29;20037;-58
2022/02/09 23:53:00;;;;;;;26.70;18.48;;;230.70;1740.80;;;;;;4890321;29;20535;-58
